Terminal Aerodrome Forecast
Issued by NWS

Home | Current Version | Previous Version | Text Only | Print | Product List | Glossary On
Versions: 1 2 3 4 5 6 7 8 9 10 11 12 13 14 15 16 17 18 19 20
000
FTUS43 KGRR 182300 RRA
TAFMKG
TAF
KMKG 182343Z 1900/1924 VRB03KT P6SM SCT025
     FM191000 12006KT 6SM BR FEW007
     FM191500 17014G22KT P6SM SCT035=

USA.gov is the U.S. government's official web portal to all federal, state and local government web resources and services.